SBIL Informações do Aeroporto

Informações da Pista
Pista 11 Comprimento 5174 ft Largura 148 ft
Elevação 0 ft Limite 0 ft Heading 0
Pista 29 Comprimento 5174 ft Largura 148 ft
Elevação 0 ft Limite 0 ft Heading 0
Frequências do Aeroporto
Tipo APP Nome APP Frequência 120.1 MHZ
Navaids do Aeroporto
Tipo NDB Nome Ilheus Frequência 305 KHZ
Informações meteorológicas do aeroporto e NOTAM
ADDS - METARS form results

(1104 UTC 22 August 2019)
Data provider http://aviationweather.gov/metar/data/
 
Forecast for: SBIL (ILHEUS AIRPORT , BR)
Text: TAF SBIL 220400Z 2206/2218 21008KT 8000 SCT010 TN21/2208Z TX26/2215Z
Forecast period: 0600 to 1200 UTC 22 August 2019
Forecast type: FROM: standard forecast or significant change
Winds: from the SSW (210 degrees) at 9 MPH (8 knots; 4.1 m/s)
Visibility: 5 miles (8 km)
Ceiling: at least 12,000 feet AGL
Clouds: scattered clouds at 1000 feet AGL
Weather: no significant weather forecast for this period
Text: BECMG 2212/2214 17011KT SCT020 FEW025TCU RMK PCQ
Forecast period: 1200 to 1800 UTC 22 August 2019
Forecast type: BECOMING: Conditions expected to become as follows by 1400 UTC 22 August 2019
Winds: from the S (170 degrees) at 13 MPH (11 knots; 5.7 m/s)
Visibility: 5 miles (8 km)
Ceiling: at least 12,000 feet AGL
Clouds: scattered clouds at 2000 feet AGL
few clouds at 2500 feet AGL
Weather: no significant weather forecast for this period